createdAt,value
2017-06-14T00:00:17.740Z,0
2017-06-14T00:00:58.281Z,0
2017-06-14T00:01:38.820Z,0
2017-06-14T00:02:19.352Z,0
2017-06-14T00:02:59.892Z,0
2017-06-14T00:03:40.428Z,0
2017-06-14T00:04:20.973Z,0
2017-06-14T00:05:01.509Z,0
2017-06-14T00:05:42.042Z,0
2017-06-14T00:06:22.601Z,0
2017-06-14T00:07:03.149Z,0
2017-06-14T00:07:43.697Z,0
2017-06-14T00:08:24.239Z,0
2017-06-14T00:09:04.780Z,0
2017-06-14T00:09:45.329Z,0
2017-06-14T00:10:25.870Z,0
2017-06-14T00:11:06.409Z,0
2017-06-14T00:11:46.948Z,0
2017-06-14T00:12:27.489Z,0
2017-06-14T00:13:08.028Z,0
2017-06-14T00:13:48.568Z,0
2017-06-14T00:14:29.103Z,0
2017-06-14T00:15:09.644Z,0
2017-06-14T00:15:50.186Z,0
2017-06-14T00:16:30.726Z,0
2017-06-14T00:17:11.264Z,0
2017-06-14T00:17:51.806Z,0
2017-06-14T00:18:32.342Z,0
2017-06-14T00:19:12.883Z,0
2017-06-14T00:19:53.431Z,0
2017-06-14T00:20:33.977Z,0
2017-06-14T00:21:14.511Z,0
2017-06-14T00:21:55.062Z,0
2017-06-14T00:22:35.597Z,0
2017-06-14T00:23:16.129Z,0
2017-06-14T00:23:56.663Z,0
2017-06-14T00:24:37.198Z,0
2017-06-14T00:25:17.730Z,0
2017-06-14T00:25:58.255Z,0
2017-06-14T00:26:38.793Z,0
2017-06-14T00:27:19.325Z,0
2017-06-14T00:27:59.873Z,0
2017-06-14T00:28:40.413Z,0
2017-06-14T00:29:20.953Z,0
2017-06-14T00:30:01.487Z,0
2017-06-14T00:30:42.037Z,0
2017-06-14T00:31:22.582Z,0
2017-06-14T00:32:03.127Z,0
2017-06-14T00:32:43.666Z,0
2017-06-14T00:33:24.215Z,0
2017-06-14T00:34:04.751Z,0
2017-06-14T00:34:45.295Z,0
2017-06-14T00:35:25.830Z,0
2017-06-14T00:36:06.373Z,0
2017-06-14T00:36:46.910Z,0
2017-06-14T00:37:27.443Z,0
2017-06-14T00:38:08.007Z,0
2017-06-14T00:38:48.532Z,0
2017-06-14T00:39:29.083Z,0
2017-06-14T00:40:09.622Z,0
2017-06-14T00:40:50.170Z,0
2017-06-14T00:41:30.710Z,0
2017-06-14T00:42:11.248Z,0
2017-06-14T00:42:51.786Z,0
2017-06-14T00:43:32.325Z,0
2017-06-14T00:44:12.881Z,0
2017-06-14T00:44:53.416Z,0
2017-06-14T00:45:33.984Z,0
2017-06-14T00:46:14.498Z,0
2017-06-14T00:46:55.048Z,0
2017-06-14T00:47:35.590Z,0
2017-06-14T00:48:16.123Z,0
2017-06-14T00:48:56.664Z,0
2017-06-14T00:49:37.196Z,0
2017-06-14T00:50:17.729Z,0
2017-06-14T00:50:58.267Z,0
2017-06-14T00:51:38.807Z,0
2017-06-14T00:52:19.350Z,0
2017-06-14T00:52:59.896Z,0
2017-06-14T00:53:40.435Z,0
2017-06-14T00:54:20.988Z,0
2017-06-14T00:55:01.526Z,0
2017-06-14T00:55:42.071Z,0
2017-06-14T00:56:22.603Z,0
2017-06-14T00:57:03.146Z,0
2017-06-14T00:57:43.682Z,0
2017-06-14T00:58:24.220Z,0
2017-06-14T00:59:04.760Z,0
2017-06-14T00:59:45.318Z,0
2017-06-14T01:00:25.862Z,0
2017-06-14T01:01:06.405Z,0
2017-06-14T01:01:46.943Z,0
2017-06-14T01:02:27.480Z,0
2017-06-14T01:03:08.011Z,0
2017-06-14T01:03:48.559Z,0
2017-06-14T01:04:29.100Z,0
2017-06-14T01:05:09.639Z,0
2017-06-14T01:05:50.180Z,0
2017-06-14T01:06:30.716Z,0
2017-06-14T01:07:11.268Z,0
2017-06-14T01:07:51.803Z,0
2017-06-14T01:08:32.347Z,0
2017-06-14T01:09:12.886Z,0
2017-06-14T01:09:53.414Z,0
2017-06-14T01:10:33.944Z,0
2017-06-14T01:11:14.486Z,0
2017-06-14T01:11:55.021Z,0
2017-06-14T01:12:35.559Z,0
2017-06-14T01:13:16.103Z,0
2017-06-14T01:13:56.649Z,0
2017-06-14T01:14:37.188Z,0
2017-06-14T01:15:17.723Z,0
2017-06-14T01:15:58.269Z,0
2017-06-14T01:16:38.806Z,0
2017-06-14T01:17:19.350Z,0
2017-06-14T01:17:59.892Z,0
2017-06-14T01:18:40.436Z,0
2017-06-14T01:19:20.980Z,0
2017-06-14T01:20:01.525Z,0
2017-06-14T01:20:42.068Z,0
2017-06-14T01:21:22.610Z,0
2017-06-14T01:22:03.147Z,0
2017-06-14T01:22:43.678Z,0
2017-06-14T01:23:24.209Z,0
2017-06-14T01:24:04.745Z,0
2017-06-14T01:24:45.285Z,0
2017-06-14T01:25:25.829Z,0
2017-06-14T01:26:06.355Z,0
2017-06-14T01:26:46.903Z,0
2017-06-14T01:27:27.449Z,0
2017-06-14T01:28:07.982Z,0
2017-06-14T01:28:48.533Z,0
2017-06-14T01:29:29.073Z,0
2017-06-14T01:30:09.611Z,0
2017-06-14T01:30:50.150Z,0
2017-06-14T01:31:30.691Z,0
2017-06-14T01:32:11.229Z,0
2017-06-14T01:32:51.770Z,0
2017-06-14T01:33:32.309Z,0
2017-06-14T01:34:12.851Z,0
2017-06-14T01:34:53.389Z,0
2017-06-14T01:35:33.932Z,0
2017-06-14T01:36:14.468Z,0
2017-06-14T01:36:55.003Z,0
2017-06-14T01:37:35.552Z,0
2017-06-14T01:38:16.090Z,0
2017-06-14T01:38:56.629Z,0
2017-06-14T01:39:37.174Z,0
2017-06-14T01:40:17.725Z,0
2017-06-14T01:40:58.273Z,0
2017-06-14T01:41:38.801Z,0
2017-06-14T01:42:19.349Z,0
2017-06-14T01:42:59.889Z,0
2017-06-14T01:43:40.412Z,0
2017-06-14T01:44:20.958Z,0
2017-06-14T01:45:01.492Z,0
2017-06-14T01:45:42.128Z,0
2017-06-14T01:46:22.656Z,0
2017-06-14T01:47:03.215Z,0
2017-06-14T01:47:43.759Z,0
2017-06-14T01:48:24.282Z,0
2017-06-14T01:49:04.821Z,0
2017-06-14T01:49:45.367Z,0
2017-06-14T01:50:25.924Z,0
2017-06-14T01:51:06.465Z,0
2017-06-14T01:51:46.999Z,0
2017-06-14T01:52:27.534Z,0
2017-06-14T01:53:08.086Z,0
2017-06-14T01:53:48.634Z,0
2017-06-14T01:54:29.189Z,0
2017-06-14T01:55:09.734Z,0
2017-06-14T01:55:50.297Z,0
2017-06-14T01:56:30.834Z,0
2017-06-14T01:57:11.366Z,0
2017-06-14T01:57:51.920Z,0
2017-06-14T01:58:32.444Z,0
2017-06-14T01:59:12.985Z,0
2017-06-14T01:59:53.522Z,0
2017-06-14T02:00:34.066Z,0
2017-06-14T02:01:14.627Z,0
2017-06-14T02:01:55.175Z,0
2017-06-14T02:02:35.713Z,0
2017-06-14T02:03:16.257Z,0
2017-06-14T02:03:56.807Z,0
2017-06-14T02:04:37.349Z,0
2017-06-14T02:05:17.898Z,0
2017-06-14T02:05:58.427Z,0
2017-06-14T02:06:38.975Z,0
2017-06-14T02:07:19.516Z,0
2017-06-14T02:08:00.053Z,0
2017-06-14T02:08:40.594Z,0
2017-06-14T02:09:21.132Z,0
2017-06-14T02:10:01.674Z,0
2017-06-14T02:10:42.236Z,0
2017-06-14T02:11:22.772Z,0
2017-06-14T02:12:03.316Z,0
2017-06-14T02:12:43.854Z,0
2017-06-14T02:13:24.395Z,0
2017-06-14T02:14:04.933Z,0
2017-06-14T02:14:45.471Z,0
2017-06-14T02:15:26.011Z,0
2017-06-14T02:16:06.548Z,0
2017-06-14T02:16:47.092Z,0
2017-06-14T02:17:27.633Z,0
2017-06-14T02:18:08.163Z,0
2017-06-14T02:18:48.708Z,0
2017-06-14T02:19:29.268Z,0
2017-06-14T02:20:09.810Z,0
2017-06-14T02:20:50.360Z,0
2017-06-14T02:21:30.897Z,0
2017-06-14T02:22:11.438Z,0
2017-06-14T02:22:51.981Z,0
2017-06-14T02:23:32.515Z,0
2017-06-14T02:24:13.055Z,0
2017-06-14T02:24:53.608Z,0
2017-06-14T02:25:34.149Z,0
2017-06-14T02:26:14.693Z,0
2017-06-14T02:26:55.232Z,0
2017-06-14T02:27:35.746Z,0
2017-06-14T02:28:16.285Z,0
2017-06-14T02:28:56.828Z,0
2017-06-14T02:29:37.364Z,0
2017-06-14T02:30:17.904Z,0
2017-06-14T02:30:58.442Z,0
2017-06-14T02:31:38.993Z,0
2017-06-14T02:32:19.534Z,0
2017-06-14T02:33:00.073Z,0
2017-06-14T02:33:40.603Z,0
2017-06-14T02:34:21.149Z,0
2017-06-14T02:35:01.693Z,0
2017-06-14T02:35:42.232Z,0
2017-06-14T02:36:22.774Z,0
2017-06-14T02:37:03.317Z,0
2017-06-14T02:37:43.860Z,0
2017-06-14T02:38:24.400Z,0
2017-06-14T02:39:04.941Z,0
2017-06-14T02:39:45.484Z,0
2017-06-14T02:40:26.029Z,0
2017-06-14T02:41:06.553Z,0
2017-06-14T02:41:47.106Z,4
2017-06-14T02:42:27.645Z,4
2017-06-14T02:43:08.182Z,4
2017-06-14T02:43:48.723Z,4
2017-06-14T02:44:29.266Z,0
2017-06-14T02:45:09.826Z,0
2017-06-14T02:45:50.383Z,4
2017-06-14T02:46:30.916Z,4
2017-06-14T02:47:11.454Z,4
2017-06-14T02:47:51.989Z,4
2017-06-14T02:48:32.520Z,4
2017-06-14T02:49:13.062Z,4
2017-06-14T02:49:53.590Z,4
2017-06-14T02:50:34.131Z,8
2017-06-14T02:51:14.674Z,4
2017-06-14T02:51:55.215Z,4
2017-06-14T02:52:35.753Z,8
2017-06-14T02:53:16.291Z,4
2017-06-14T02:53:56.830Z,8
2017-06-14T02:54:37.371Z,8
2017-06-14T02:55:17.909Z,8
2017-06-14T02:55:58.450Z,12
2017-06-14T02:56:39.001Z,8
2017-06-14T02:57:19.527Z,12
2017-06-14T02:58:00.063Z,12
2017-06-14T02:58:40.606Z,16
2017-06-14T02:59:21.144Z,16
2017-06-14T03:00:01.677Z,16
2017-06-14T03:00:42.227Z,20
2017-06-14T03:01:22.764Z,20
2017-06-14T03:02:03.311Z,20
2017-06-14T03:02:43.849Z,24
2017-06-14T03:03:24.386Z,24
2017-06-14T03:04:04.922Z,28
2017-06-14T03:04:45.478Z,28
2017-06-14T03:05:26.021Z,32
2017-06-14T03:06:06.562Z,32
2017-06-14T03:06:47.101Z,36
2017-06-14T03:07:27.633Z,36
2017-06-14T03:08:08.170Z,40
2017-06-14T03:08:48.719Z,44
2017-06-14T03:09:29.255Z,44
2017-06-14T03:10:09.794Z,48
2017-06-14T03:10:50.330Z,52
2017-06-14T03:11:30.873Z,52
2017-06-14T03:12:11.415Z,56
2017-06-14T03:12:51.959Z,60
2017-06-14T03:13:32.503Z,64
2017-06-14T03:14:13.036Z,68
2017-06-14T03:14:53.570Z,72
2017-06-14T03:15:34.108Z,76
2017-06-14T03:16:14.671Z,80
2017-06-14T03:16:55.188Z,84
2017-06-14T03:17:35.728Z,88
2017-06-14T03:18:16.265Z,96
2017-06-14T03:18:56.813Z,96
2017-06-14T03:19:37.353Z,100
2017-06-14T03:20:17.873Z,108
2017-06-14T03:20:58.415Z,112
2017-06-14T03:21:38.953Z,116
2017-06-14T03:22:19.488Z,120
2017-06-14T03:23:00.032Z,128
2017-06-14T03:23:40.607Z,132
2017-06-14T03:24:21.145Z,136
2017-06-14T03:25:01.685Z,144
2017-06-14T03:25:42.228Z,152
2017-06-14T03:26:22.766Z,156
2017-06-14T03:27:03.299Z,164
2017-06-14T03:27:43.841Z,168
2017-06-14T03:28:24.377Z,176
2017-06-14T03:29:04.922Z,180
2017-06-14T03:29:45.462Z,184
2017-06-14T03:30:26.004Z,192
2017-06-14T03:31:06.548Z,200
2017-06-14T03:31:47.082Z,208
2017-06-14T03:32:27.627Z,212
2017-06-14T03:33:08.163Z,216
2017-06-14T03:33:48.710Z,224
2017-06-14T03:34:29.246Z,232
2017-06-14T03:35:09.787Z,240
2017-06-14T03:35:50.328Z,244
2017-06-14T03:36:30.870Z,252
2017-06-14T03:37:11.407Z,256
2017-06-14T03:37:51.963Z,268
2017-06-14T03:38:32.508Z,276
2017-06-14T03:39:13.048Z,288
2017-06-14T03:39:54.227Z,300
2017-06-14T03:40:34.773Z,308
2017-06-14T03:41:15.314Z,320
2017-06-14T03:41:55.851Z,336
2017-06-14T03:42:36.392Z,344
2017-06-14T03:43:16.933Z,352
2017-06-14T03:43:57.472Z,360
2017-06-14T03:44:38.014Z,368
2017-06-14T03:45:18.557Z,376
2017-06-14T03:45:59.099Z,388
2017-06-14T03:46:39.643Z,392
2017-06-14T03:47:20.187Z,404
2017-06-14T03:48:00.721Z,416
2017-06-14T03:48:41.261Z,424
2017-06-14T03:49:21.797Z,432
2017-06-14T03:50:02.339Z,440
2017-06-14T03:50:42.876Z,448
2017-06-14T03:51:23.424Z,460
2017-06-14T03:52:03.970Z,468
2017-06-14T03:52:44.504Z,476
2017-06-14T03:53:25.050Z,488
2017-06-14T03:54:05.592Z,500
2017-06-14T03:54:46.151Z,508
2017-06-14T03:55:26.694Z,512
2017-06-14T03:56:07.221Z,524
2017-06-14T03:56:47.749Z,532
2017-06-14T03:57:28.288Z,544
2017-06-14T03:58:08.825Z,552
2017-06-14T03:58:49.360Z,560
2017-06-14T03:59:29.897Z,572
2017-06-14T04:00:10.445Z,584
2017-06-14T04:00:50.984Z,592
2017-06-14T04:01:31.575Z,604
2017-06-14T04:02:12.109Z,612
2017-06-14T04:02:52.651Z,624
2017-06-14T04:03:33.238Z,636
2017-06-14T04:04:13.716Z,644
2017-06-14T04:04:54.258Z,652
2017-06-14T04:05:34.793Z,660
2017-06-14T04:06:15.335Z,668
2017-06-14T04:06:55.861Z,676
2017-06-14T04:07:36.403Z,688
2017-06-14T04:08:16.954Z,700
2017-06-14T04:08:57.522Z,708
2017-06-14T04:09:38.068Z,716
2017-06-14T04:10:18.584Z,724
2017-06-14T04:10:59.116Z,736
2017-06-14T04:11:39.661Z,740
2017-06-14T04:12:20.195Z,752
2017-06-14T04:13:00.720Z,760
2017-06-14T04:13:41.242Z,768
2017-06-14T04:14:27.072Z,780
2017-06-14T04:15:08.710Z,788
2017-06-14T04:15:51.680Z,796
2017-06-14T04:18:33.566Z,832
2017-06-14T04:19:14.720Z,844
2017-06-14T04:19:57.877Z,852
2017-06-14T04:20:38.995Z,860
2017-06-14T04:21:19.712Z,868
2017-06-14T04:22:00.664Z,884
2017-06-14T04:22:41.399Z,892
2017-06-14T04:23:22.364Z,900
2017-06-14T04:24:03.478Z,912
2017-06-14T04:24:44.196Z,920
2017-06-14T04:25:24.913Z,928
2017-06-14T04:26:05.577Z,940
2017-06-14T04:26:46.829Z,944
2017-06-14T04:27:27.376Z,956
2017-06-14T04:28:08.274Z,964
2017-06-14T04:28:49.082Z,972
2017-06-14T04:29:29.986Z,980
2017-06-14T04:30:10.567Z,992
2017-06-14T04:30:51.109Z,996
2017-06-14T04:31:31.626Z,1004
2017-06-14T04:32:12.406Z,1016
2017-06-14T04:32:52.995Z,1020
2017-06-14T04:33:33.872Z,1032
2017-06-14T04:34:14.649Z,1040
2017-06-14T04:34:55.440Z,1048
2017-06-14T04:35:36.180Z,1060
2017-06-14T04:36:16.842Z,1068
2017-06-14T04:36:57.788Z,1076
2017-06-14T04:37:38.524Z,1084
2017-06-14T04:38:19.396Z,1092
2017-06-14T04:39:00.054Z,1104
2017-06-14T04:39:40.615Z,1108
2017-06-14T04:40:21.302Z,1116
2017-06-14T04:41:01.974Z,1124
2017-06-14T04:41:42.552Z,1132
2017-06-14T04:42:23.138Z,1140
2017-06-14T04:43:03.703Z,1144
2017-06-14T04:43:44.254Z,1148
2017-06-14T04:44:24.797Z,1156
2017-06-14T04:45:05.342Z,1164
2017-06-14T04:45:45.915Z,1172
2017-06-14T04:46:26.617Z,1180
2017-06-14T04:47:07.313Z,1188
2017-06-14T04:47:47.854Z,1196
2017-06-14T04:48:28.459Z,1204
2017-06-14T04:49:09.015Z,1212
2017-06-14T04:49:49.756Z,1224
2017-06-14T04:50:30.556Z,1228
2017-06-14T04:51:10.947Z,1236
2017-06-14T04:51:51.623Z,1244
2017-06-14T04:52:32.147Z,1248
2017-06-14T04:53:12.721Z,1256
2017-06-14T04:53:53.408Z,1264
2017-06-14T04:54:34.037Z,1272
2017-06-14T04:55:14.662Z,1284
2017-06-14T04:55:55.197Z,1296
2017-06-14T04:56:35.741Z,1308
2017-06-14T04:57:16.281Z,1316
2017-06-14T04:57:57.093Z,1324
2017-06-14T04:58:37.636Z,1328
2017-06-14T04:59:18.579Z,1336
2017-06-14T04:59:59.200Z,1340
2017-06-14T05:00:39.752Z,1344
2017-06-14T05:01:20.437Z,1352
2017-06-14T05:02:00.981Z,1360
2017-06-14T05:02:41.546Z,1372
2017-06-14T05:03:22.077Z,1380
2017-06-14T05:04:02.620Z,1388
2017-06-14T05:04:43.185Z,1400
2017-06-14T05:05:23.721Z,1408
2017-06-14T05:06:04.252Z,1416
2017-06-14T05:06:44.786Z,1424
2017-06-14T05:07:25.312Z,1432
2017-06-14T05:08:06.532Z,1444
2017-06-14T05:08:47.058Z,1456
2017-06-14T05:09:27.600Z,1468
2017-06-14T05:10:08.140Z,1476
2017-06-14T05:10:48.686Z,1488
2017-06-14T05:11:29.226Z,1500
2017-06-14T05:12:09.788Z,1508
2017-06-14T05:12:50.310Z,1520
2017-06-14T05:13:30.847Z,1528
2017-06-14T05:14:11.394Z,1540
2017-06-14T05:14:51.948Z,1556
2017-06-14T05:15:32.498Z,1564
2017-06-14T05:16:13.015Z,1576
2017-06-14T05:16:53.563Z,1588
2017-06-14T05:17:34.122Z,1600
2017-06-14T05:18:14.664Z,1620
2017-06-14T05:18:55.194Z,1632
2017-06-14T05:19:35.724Z,1652
2017-06-14T05:20:16.256Z,1664
2017-06-14T05:20:56.817Z,1676
2017-06-14T05:21:37.323Z,1688
2017-06-14T05:22:17.870Z,1692
2017-06-14T05:22:58.416Z,1700
2017-06-14T05:23:38.939Z,1712
2017-06-14T05:24:19.478Z,1724
2017-06-14T05:25:00.008Z,1744
2017-06-14T05:25:40.545Z,1768
2017-06-14T05:26:21.095Z,1800
2017-06-14T05:27:01.625Z,1840
2017-06-14T05:27:42.173Z,1884
2017-06-14T05:28:22.780Z,1908
2017-06-14T05:29:03.660Z,1920
2017-06-14T05:29:45.462Z,1928
2017-06-14T05:30:26.553Z,1932
2017-06-14T05:31:08.358Z,1932
2017-06-14T05:31:49.779Z,1936
2017-06-14T05:32:31.331Z,1968
2017-06-14T05:33:13.497Z,2016
2017-06-14T05:33:54.027Z,2064
2017-06-14T05:34:35.191Z,2104
2017-06-14T05:35:20.181Z,2128
2017-06-14T05:36:04.108Z,2116
2017-06-14T05:36:46.184Z,2140
2017-06-14T05:37:28.043Z,2148
2017-06-14T05:38:08.847Z,2168
2017-06-14T05:38:49.894Z,2184
2017-06-14T05:39:31.043Z,2200
2017-06-14T05:40:11.999Z,2212
2017-06-14T05:40:53.922Z,2232
2017-06-14T05:41:39.893Z,2260
2017-06-14T05:42:20.448Z,2284
2017-06-14T05:43:00.984Z,2312
2017-06-14T05:43:41.512Z,2332
2017-06-14T05:44:22.054Z,2356
2017-06-14T05:45:02.591Z,2376
2017-06-14T05:45:43.134Z,2396
2017-06-14T05:46:23.678Z,2412
2017-06-14T05:47:04.208Z,2412
2017-06-14T05:47:44.708Z,2448
2017-06-14T05:48:25.230Z,2456
2017-06-14T05:49:05.777Z,2468
2017-06-14T05:49:46.320Z,2480
2017-06-14T05:50:26.839Z,2492
2017-06-14T05:51:07.613Z,2504
2017-06-14T05:51:48.378Z,2516
2017-06-14T05:52:28.943Z,2528
2017-06-14T05:53:09.470Z,2540
2017-06-14T05:53:49.983Z,2556
2017-06-14T05:54:30.531Z,2568
2017-06-14T05:55:11.076Z,2588
2017-06-14T05:55:51.612Z,2604
2017-06-14T05:56:32.148Z,2616
2017-06-14T05:57:12.671Z,2632
2017-06-14T05:57:53.193Z,2644
2017-06-14T05:58:33.737Z,2652
2017-06-14T05:59:14.275Z,2664
2017-06-14T05:59:54.796Z,2672
2017-06-14T06:00:35.325Z,2684
2017-06-14T06:01:15.869Z,2684
2017-06-14T06:01:56.391Z,2692
2017-06-14T06:02:36.944Z,2704
2017-06-14T06:03:17.492Z,2716
2017-06-14T06:03:58.029Z,2728
2017-06-14T06:04:38.568Z,2744
2017-06-14T06:05:19.099Z,2764
2017-06-14T06:05:59.630Z,2788
2017-06-14T06:06:40.181Z,2808
2017-06-14T06:07:20.728Z,2828
2017-06-14T06:08:01.269Z,2848
2017-06-14T06:08:41.807Z,2852
2017-06-14T06:09:22.346Z,2860
2017-06-14T06:10:02.885Z,2876
2017-06-14T06:10:43.453Z,2904
2017-06-14T06:11:24.016Z,2936
2017-06-14T06:12:04.548Z,2964
2017-06-14T06:12:45.093Z,2984
2017-06-14T06:13:25.642Z,2996
2017-06-14T06:14:06.176Z,3008
2017-06-14T06:14:46.710Z,3024
2017-06-14T06:15:27.270Z,3044
2017-06-14T06:16:07.819Z,3060
2017-06-14T06:16:48.361Z,3076
2017-06-14T06:17:28.908Z,3096
2017-06-14T06:18:09.453Z,3116
2017-06-14T06:18:49.992Z,3136
2017-06-14T06:19:30.505Z,3152
2017-06-14T06:20:11.063Z,3164
2017-06-14T06:20:51.588Z,3176
2017-06-14T06:21:32.138Z,3180
2017-06-14T06:22:12.691Z,3188
2017-06-14T06:22:53.240Z,3200
2017-06-14T06:23:33.789Z,3208
2017-06-14T06:24:14.329Z,3216
2017-06-14T06:24:54.862Z,3236
2017-06-14T06:25:35.395Z,3260
2017-06-14T06:26:15.946Z,3280
2017-06-14T06:26:56.481Z,3304
2017-06-14T06:27:37.027Z,3328
2017-06-14T06:28:17.571Z,3344
2017-06-14T06:28:58.109Z,3356
2017-06-14T06:29:38.659Z,3364
2017-06-14T06:30:19.209Z,3368
2017-06-14T06:30:59.762Z,3372
2017-06-14T06:31:40.315Z,3380
2017-06-14T06:32:20.862Z,3388
2017-06-14T06:33:01.412Z,3404
2017-06-14T06:33:41.996Z,3420
2017-06-14T06:34:22.547Z,3432
2017-06-14T06:35:03.085Z,3452
2017-06-14T06:35:43.576Z,3468
2017-06-14T06:36:24.100Z,3480
2017-06-14T06:37:04.640Z,3492
2017-06-14T06:37:45.179Z,3496
2017-06-14T06:38:25.716Z,3504
2017-06-14T06:39:06.237Z,3508
2017-06-14T06:39:46.785Z,3516
2017-06-14T06:40:27.346Z,3528
2017-06-14T06:41:07.877Z,3544
2017-06-14T06:41:48.611Z,3548
2017-06-14T06:42:29.229Z,3572
2017-06-14T06:43:09.799Z,3588
2017-06-14T06:43:50.523Z,3612
2017-06-14T06:44:31.116Z,3628
2017-06-14T06:45:11.772Z,3644
2017-06-14T06:45:52.360Z,3664
2017-06-14T06:46:32.940Z,3684
2017-06-14T06:47:13.443Z,3700
2017-06-14T06:47:53.972Z,3720
2017-06-14T06:48:34.552Z,3740
2017-06-14T06:49:15.105Z,3756
2017-06-14T06:49:55.730Z,3780
2017-06-14T06:50:36.279Z,3800
2017-06-14T06:51:16.824Z,3828
2017-06-14T06:51:57.365Z,3848
2017-06-14T06:52:37.913Z,3872
2017-06-14T06:53:18.604Z,3896
2017-06-14T06:53:59.160Z,3920
2017-06-14T06:54:39.687Z,3944
2017-06-14T06:55:20.274Z,3964
2017-06-14T06:56:00.788Z,3992
2017-06-14T06:56:41.337Z,4008
2017-06-14T06:57:21.965Z,4028
2017-06-14T06:58:02.521Z,4056
2017-06-14T06:58:43.091Z,4080
2017-06-14T06:59:23.622Z,4108
2017-06-14T07:00:04.160Z,4136
2017-06-14T07:00:44.700Z,4156
2017-06-14T07:01:25.233Z,4180
2017-06-14T07:02:05.770Z,4204
2017-06-14T07:02:46.311Z,4232
2017-06-14T07:03:26.850Z,4256
2017-06-14T07:04:07.384Z,4280
2017-06-14T07:04:48.000Z,4308
2017-06-14T07:05:28.507Z,4336
2017-06-14T07:06:09.034Z,4368
2017-06-14T07:06:49.578Z,4396
2017-06-14T07:07:30.148Z,4420
2017-06-14T07:08:10.684Z,4440
2017-06-14T07:08:51.213Z,4464
2017-06-14T07:09:31.783Z,4488
2017-06-14T07:10:12.387Z,4508
2017-06-14T07:10:52.898Z,4540
2017-06-14T07:11:33.437Z,4572
2017-06-14T07:12:13.992Z,4592
2017-06-14T07:12:54.536Z,4616
2017-06-14T07:13:35.066Z,4632
2017-06-14T07:14:15.598Z,4648
2017-06-14T07:14:56.148Z,4664
2017-06-14T07:15:36.701Z,4680
2017-06-14T07:16:17.253Z,4692
2017-06-14T07:16:57.809Z,4708
2017-06-14T07:17:38.329Z,4720
2017-06-14T07:18:18.871Z,4728
2017-06-14T07:18:59.420Z,4740
2017-06-14T07:19:39.967Z,4748
2017-06-14T07:20:20.515Z,4764
2017-06-14T07:21:01.064Z,4784
2017-06-14T07:21:41.611Z,4796
2017-06-14T07:22:22.175Z,4832
2017-06-14T07:23:02.715Z,4860
2017-06-14T07:23:43.254Z,4884
2017-06-14T07:24:23.815Z,4912
2017-06-14T07:25:04.357Z,4944
2017-06-14T07:25:44.925Z,4968
2017-06-14T07:26:25.458Z,4988
2017-06-14T07:27:06.009Z,5000
2017-06-14T07:27:46.597Z,5008
2017-06-14T07:28:27.135Z,5024
2017-06-14T07:29:07.684Z,5056
2017-06-14T07:29:48.227Z,5088
2017-06-14T07:30:28.751Z,5124
2017-06-14T07:31:09.295Z,5152
2017-06-14T07:31:49.818Z,5184
2017-06-14T07:32:30.379Z,5216
2017-06-14T07:33:10.911Z,5248
2017-06-14T07:33:51.439Z,5280
2017-06-14T07:34:31.988Z,5308
2017-06-14T07:35:12.532Z,5352
2017-06-14T07:35:53.079Z,5388
2017-06-14T07:36:33.613Z,5432
2017-06-14T07:37:14.153Z,5468
2017-06-14T07:37:54.673Z,5496
2017-06-14T07:38:35.207Z,5520
2017-06-14T07:39:15.737Z,5544
2017-06-14T07:39:56.273Z,5564
2017-06-14T07:40:36.820Z,5584
2017-06-14T07:41:17.365Z,5592
2017-06-14T07:41:57.904Z,5596
2017-06-14T07:42:38.443Z,5636
2017-06-14T07:43:18.991Z,5664
2017-06-14T07:43:59.546Z,5676
2017-06-14T07:44:40.062Z,5704
2017-06-14T07:45:20.609Z,5720
2017-06-14T07:46:01.134Z,5752
2017-06-14T07:46:41.668Z,5744
2017-06-14T07:47:22.229Z,5776
2017-06-14T07:48:02.769Z,5776
2017-06-14T07:48:43.318Z,5800
2017-06-14T07:49:23.870Z,5812
2017-06-14T07:50:04.426Z,5816
2017-06-14T07:50:44.983Z,5816
2017-06-14T07:51:25.532Z,5820
2017-06-14T07:52:06.059Z,5800
2017-06-14T07:52:46.596Z,5824
2017-06-14T07:53:27.146Z,6000
2017-06-14T07:54:07.664Z,5876
2017-06-14T07:54:48.216Z,6096
2017-06-14T07:55:28.754Z,6164
2017-06-14T07:56:09.301Z,6164
2017-06-14T07:56:49.846Z,6172
2017-06-14T07:57:30.392Z,6172
2017-06-14T07:58:10.961Z,6140
2017-06-14T07:58:51.509Z,6132
2017-06-14T07:59:32.051Z,6220
2017-06-14T08:00:12.595Z,6280
2017-06-14T08:00:53.160Z,6324
2017-06-14T08:01:33.706Z,6368
2017-06-14T08:02:14.264Z,6480
2017-06-14T08:02:54.788Z,6528
2017-06-14T08:03:35.317Z,6536
2017-06-14T08:04:15.869Z,6716
2017-06-14T08:04:56.478Z,6824
2017-06-14T08:05:37.030Z,6868
2017-06-14T08:06:17.580Z,7056
2017-06-14T08:06:58.122Z,7440
2017-06-14T08:07:38.667Z,8968
2017-06-14T08:08:19.227Z,22208
2017-06-14T08:08:59.776Z,40320
2017-06-14T08:09:40.324Z,51776
2017-06-14T08:10:20.870Z,52928
2017-06-14T08:11:01.415Z,52960
2017-06-14T08:11:41.969Z,57728
2017-06-14T08:12:22.518Z,56256
2017-06-14T08:13:03.059Z,54688
2017-06-14T08:13:43.609Z,53984
2017-06-14T08:14:24.159Z,56096
2017-06-14T08:15:04.714Z,55712
2017-06-14T08:15:45.265Z,54816
2017-06-14T08:16:25.815Z,54880
2017-06-14T08:17:06.366Z,54720
2017-06-14T08:17:46.926Z,58016
2017-06-14T08:18:27.476Z,59648
2017-06-14T08:19:08.018Z,57056
2017-06-14T08:19:48.577Z,60864
2017-06-14T08:20:29.149Z,62560
2017-06-14T08:21:09.693Z,61280
2017-06-14T08:21:50.242Z,60928
2017-06-14T08:22:30.837Z,61632
2017-06-14T08:23:11.364Z,62080
2017-06-14T08:23:51.899Z,61792
2017-06-14T08:24:32.439Z,60960
2017-06-14T08:25:12.987Z,61632
2017-06-14T08:25:53.537Z,61856
2017-06-14T08:26:34.097Z,61216
2017-06-14T08:27:14.643Z,64320
2017-06-14T08:27:55.190Z,64544
2017-06-14T08:28:35.743Z,63264
2017-06-14T08:29:16.300Z,65664
2017-06-14T08:29:56.843Z,66208
2017-06-14T08:30:37.395Z,65440
2017-06-14T08:31:17.937Z,62624
2017-06-14T08:31:58.483Z,60192
2017-06-14T08:32:39.066Z,38624
2017-06-14T08:33:19.632Z,13720
2017-06-14T08:34:00.156Z,63136
2017-06-14T08:34:40.700Z,32896
2017-06-14T08:35:21.250Z,42656
2017-06-14T08:36:01.821Z,50656
2017-06-14T08:36:42.358Z,66720
2017-06-14T08:37:22.904Z,69088
2017-06-14T08:38:03.452Z,70656
2017-06-14T08:38:44.035Z,68832
2017-06-14T08:39:24.633Z,65920
2017-06-14T08:40:05.205Z,66272
2017-06-14T08:40:45.766Z,67744
2017-06-14T08:41:26.320Z,65856
2017-06-14T08:42:06.883Z,57664
2017-06-14T08:42:47.424Z,55936
2017-06-14T08:43:27.969Z,54368
2017-06-14T08:44:08.518Z,55520
2017-06-14T08:44:49.067Z,58080
2017-06-14T08:45:29.612Z,55040
2017-06-14T08:46:10.165Z,50560
2017-06-14T08:46:50.711Z,45312
2017-06-14T08:47:31.257Z,39936
2017-06-14T08:48:11.817Z,30752
2017-06-14T08:48:52.407Z,23616
2017-06-14T08:49:32.933Z,16928
2017-06-14T08:52:02.472Z,9980
2017-06-14T08:52:43.001Z,10256
2017-06-14T08:53:23.551Z,10376
2017-06-14T08:54:04.086Z,10688
2017-06-14T08:54:44.633Z,10048
2017-06-14T08:55:25.150Z,9628
2017-06-14T08:56:05.671Z,9920
2017-06-14T08:56:46.228Z,10044
2017-06-14T08:57:26.774Z,10080
2017-06-14T08:58:07.340Z,10060
2017-06-14T08:58:47.886Z,9892
2017-06-14T08:59:28.437Z,9768
2017-06-14T09:00:08.998Z,9724
2017-06-14T09:00:49.535Z,9708
2017-06-14T09:01:30.094Z,9748
2017-06-14T09:02:10.694Z,10020
2017-06-14T09:02:51.220Z,10472
2017-06-14T09:03:31.764Z,11100
2017-06-14T09:04:12.255Z,10776
2017-06-14T09:04:52.777Z,9924
2017-06-14T09:05:33.332Z,10424
2017-06-14T09:06:13.868Z,10964
2017-06-14T09:06:54.429Z,8760
2017-06-14T09:07:34.965Z,8708
2017-06-14T09:08:15.525Z,8688
2017-06-14T09:08:56.050Z,8568
2017-06-14T09:09:36.578Z,8560
2017-06-14T09:10:17.086Z,8692
2017-06-14T09:10:57.641Z,8704
2017-06-14T09:11:38.176Z,9016
2017-06-14T09:12:18.721Z,8848
2017-06-14T09:12:59.255Z,8876
2017-06-14T09:13:39.798Z,8940
2017-06-14T09:14:20.311Z,9188
2017-06-14T09:15:00.853Z,9512
2017-06-14T09:15:41.392Z,9772
2017-06-14T09:16:21.951Z,9848
2017-06-14T09:17:02.542Z,10156
2017-06-14T09:17:43.074Z,10164
2017-06-14T09:18:23.602Z,10080
2017-06-14T09:19:04.108Z,10860
2017-06-14T09:19:44.660Z,11156
2017-06-14T09:20:25.167Z,10660
2017-06-14T09:21:05.727Z,12304
2017-06-14T09:21:46.257Z,11124
2017-06-14T09:22:26.805Z,11132
2017-06-14T09:23:07.353Z,11840
2017-06-14T09:23:47.904Z,16172